createdAt,value
2022-10-16T00:00:00.121Z,1.92
2022-10-16T00:02:27.199Z,2.15
2022-10-16T00:04:55.866Z,1.50
2022-10-16T00:07:22.903Z,1.60
2022-10-16T00:09:50.176Z,1.70
2022-10-16T00:12:17.132Z,1.80
2022-10-16T00:14:45.076Z,1.75
2022-10-16T00:17:12.044Z,1.75
2022-10-16T00:19:39.707Z,1.90
2022-10-16T00:22:06.746Z,1.88
2022-10-16T00:24:33.786Z,2.25
2022-10-16T00:27:00.779Z,1.88
2022-10-16T00:33:47.091Z,2.15
2022-10-16T00:36:17.063Z,2.25
2022-10-16T00:38:44.266Z,2.08
2022-10-16T00:41:17.382Z,2.38
2022-10-16T00:43:50.744Z,2.20
2022-10-16T00:46:28.724Z,2.00
2022-10-16T00:49:13.854Z,2.13
2022-10-16T00:51:47.790Z,1.85
2022-10-16T00:54:21.902Z,2.58
2022-10-16T00:56:49.890Z,2.22
2022-10-16T00:59:21.889Z,2.00
2022-10-16T01:01:49.576Z,1.55
2022-10-16T01:04:16.609Z,1.92
2022-10-16T01:07:08.673Z,1.60
2022-10-16T01:10:00.443Z,1.88
2022-10-16T01:12:45.508Z,1.80
2022-10-16T01:15:30.725Z,1.80
2022-10-16T01:18:15.693Z,1.67
2022-10-16T01:21:04.888Z,1.83
2022-10-16T01:23:44.636Z,2.00
2022-10-16T01:26:33.323Z,1.73
2022-10-16T01:29:41.532Z,1.67
2022-10-16T01:32:32.864Z,1.73
2022-10-16T01:35:33.370Z,1.58
2022-10-16T01:38:11.157Z,1.60
2022-10-16T01:40:42.406Z,1.67
2022-10-16T01:43:23.716Z,1.90
2022-10-16T01:45:51.481Z,1.77
2022-10-16T01:48:22.326Z,1.63
2022-10-16T01:51:10.037Z,1.50
2022-10-16T01:53:37.719Z,1.60
2022-10-16T01:56:08.803Z,1.50
2022-10-16T01:58:41.001Z,1.50
2022-10-16T02:01:09.965Z,1.50
2022-10-16T02:03:41.716Z,1.47
2022-10-16T02:06:09.178Z,1.40
2022-10-16T02:08:37.083Z,1.10
2022-10-16T02:11:04.229Z,1.50
2022-10-16T02:13:46.398Z,1.40
2022-10-16T02:16:15.175Z,1.50
2022-10-16T02:18:44.612Z,1.48
2022-10-16T02:21:27.228Z,1.35
2022-10-16T02:24:25.190Z,1.42
2022-10-16T02:27:03.198Z,1.20
2022-10-16T02:29:30.993Z,1.35
2022-10-16T02:32:02.671Z,1.20
2022-10-16T02:34:33.171Z,1.23
2022-10-16T02:37:02.964Z,1.05
2022-10-16T02:41:57.599Z,1.20
2022-10-16T02:44:24.650Z,1.50
2022-10-16T02:46:51.708Z,1.10
2022-10-16T02:49:19.152Z,1.50
2022-10-16T02:51:46.149Z,1.17
2022-10-16T02:54:14.099Z,1.10
2022-10-16T02:56:41.067Z,1.00
2022-10-16T02:59:08.096Z,1.27
2022-10-16T03:01:36.850Z,1.20
2022-10-16T03:04:04.100Z,1.10
2022-10-16T03:06:31.059Z,1.27
2022-10-16T03:08:58.046Z,1.17
2022-10-16T03:11:25.247Z,1.13
2022-10-16T03:13:52.245Z,1.20
2022-10-16T03:16:19.236Z,1.10
2022-10-16T03:18:50.650Z,1.10
2022-10-16T03:21:17.913Z,1.10
2022-10-16T03:23:44.892Z,1.20
2022-10-16T03:26:11.833Z,1.10
2022-10-16T03:28:38.890Z,1.02
2022-10-16T03:31:06.054Z,1.27
2022-10-16T03:33:33.008Z,1.20
2022-10-16T03:36:00.122Z,1.33
2022-10-16T03:38:27.170Z,1.38
2022-10-16T03:40:54.516Z,1.10
2022-10-16T03:43:21.566Z,0.95
2022-10-16T03:45:48.519Z,1.00
2022-10-16T03:48:15.496Z,1.05
2022-10-16T03:50:42.561Z,1.20
2022-10-16T03:53:09.574Z,1.30
2022-10-16T03:55:37.001Z,0.98
2022-10-16T03:58:03.974Z,1.30
2022-10-16T04:00:30.913Z,0.77
2022-10-16T04:02:57.924Z,0.80
2022-10-16T04:05:24.915Z,1.10
2022-10-16T04:07:51.921Z,1.10
2022-10-16T04:10:20.078Z,0.98
2022-10-16T04:12:47.010Z,0.98
2022-10-16T04:15:14.163Z,1.52
2022-10-16T04:17:41.115Z,1.17
2022-10-16T04:20:08.451Z,1.05
2022-10-16T04:22:35.453Z,1.08
2022-10-16T04:25:02.489Z,1.10
2022-10-16T04:27:29.983Z,1.10
2022-10-16T04:29:57.463Z,1.10
2022-10-16T04:32:24.413Z,1.42
2022-10-16T04:34:51.401Z,1.17
2022-10-16T04:37:18.413Z,1.10
2022-10-16T04:39:46.067Z,1.52
2022-10-16T04:42:13.077Z,1.40
2022-10-16T04:44:40.152Z,1.48
2022-10-16T04:47:07.117Z,1.38
2022-10-16T04:49:34.129Z,1.58
2022-10-16T04:52:01.136Z,1.48
2022-10-16T04:54:28.223Z,1.58
2022-10-16T04:56:55.322Z,1.55
2022-10-16T04:59:23.310Z,1.58
2022-10-16T05:01:50.696Z,1.30
2022-10-16T05:04:17.731Z,1.70
2022-10-16T05:06:44.780Z,1.35
2022-10-16T05:09:11.758Z,1.55
2022-10-16T05:11:38.798Z,1.90
2022-10-16T05:14:05.999Z,1.55
2022-10-16T05:16:33.101Z,1.92
2022-10-16T05:21:47.196Z,1.50
2022-10-16T05:24:14.283Z,1.45
2022-10-16T05:26:41.276Z,1.55
2022-10-16T05:29:08.323Z,1.48
2022-10-16T05:31:35.337Z,1.70
2022-10-16T05:34:03.023Z,1.55
2022-10-16T05:36:30.144Z,1.88
2022-10-16T05:38:57.193Z,1.90
2022-10-16T05:41:26.757Z,2.05
2022-10-16T05:43:54.598Z,2.10
2022-10-16T05:46:21.904Z,1.92
2022-10-16T05:48:48.877Z,2.13
2022-10-16T05:51:16.505Z,2.20
2022-10-16T05:56:13.780Z,1.60
2022-10-16T05:58:45.566Z,1.80
2022-10-16T06:01:15.655Z,1.88
2022-10-16T06:03:42.961Z,1.67
2022-10-16T06:06:21.722Z,2.50
2022-10-16T06:08:50.042Z,2.45
2022-10-16T06:11:26.037Z,2.10
2022-10-16T06:13:54.609Z,3.75
2022-10-16T06:16:21.675Z,3.10
2022-10-16T06:19:40.380Z,3.20
2022-10-16T06:22:08.441Z,2.58
2022-10-16T06:24:35.450Z,2.90
2022-10-16T06:27:02.448Z,2.95
2022-10-16T06:29:29.502Z,2.70
2022-10-16T06:31:56.454Z,2.58
2022-10-16T06:34:23.552Z,3.00
2022-10-16T06:36:50.518Z,2.92
2022-10-16T06:39:17.502Z,3.15
2022-10-16T06:41:44.479Z,3.03
2022-10-16T06:44:16.023Z,3.15
2022-10-16T06:46:42.990Z,3.30
2022-10-16T06:49:09.945Z,2.72
2022-10-16T06:51:43.174Z,3.10
2022-10-16T06:54:10.713Z,3.10
2022-10-16T06:56:38.647Z,2.50
2022-10-16T06:59:05.745Z,3.08
2022-10-16T07:01:34.191Z,2.72
2022-10-16T07:04:02.226Z,3.08
2022-10-16T07:06:34.240Z,3.45
2022-10-16T07:09:06.499Z,2.50
2022-10-16T07:11:34.433Z,2.60
2022-10-16T07:14:01.442Z,2.78
2022-10-16T07:16:30.609Z,2.95
2022-10-16T07:19:00.679Z,2.45
2022-10-16T07:21:39.073Z,2.83
2022-10-16T07:24:11.405Z,2.40
2022-10-16T07:26:40.267Z,2.20
2022-10-16T07:29:21.852Z,2.40
2022-10-16T07:31:50.194Z,1.95
2022-10-16T07:34:19.672Z,2.30
2022-10-16T07:36:49.970Z,2.13
2022-10-16T07:39:17.299Z,2.42
2022-10-16T07:41:44.398Z,2.33
2022-10-16T07:44:11.436Z,3.05
2022-10-16T07:46:38.480Z,2.22
2022-10-16T07:49:05.594Z,2.88
2022-10-16T07:51:32.566Z,2.22
2022-10-16T07:53:59.594Z,1.60
2022-10-16T07:56:26.588Z,2.10
2022-10-16T07:58:54.253Z,2.03
2022-10-16T08:01:21.908Z,2.30
2022-10-16T08:03:51.250Z,2.10
2022-10-16T08:06:23.527Z,2.30
2022-10-16T08:08:54.646Z,2.58
2022-10-16T08:11:22.022Z,3.08
2022-10-16T08:13:49.599Z,2.60
2022-10-16T08:16:17.858Z,2.22
2022-10-16T08:18:45.757Z,2.33
2022-10-16T08:21:21.184Z,2.50
2022-10-16T08:23:54.794Z,2.70
2022-10-16T08:26:26.137Z,2.50
2022-10-16T08:28:56.553Z,2.70
2022-10-16T08:31:24.460Z,2.08
2022-10-16T08:33:52.632Z,2.22
2022-10-16T08:36:20.161Z,1.92
2022-10-16T08:38:51.115Z,1.33
2022-10-16T08:41:57.999Z,1.58
2022-10-16T08:44:41.271Z,1.60
2022-10-16T08:47:18.487Z,1.50
2022-10-16T08:49:57.993Z,1.70
2022-10-16T08:52:30.856Z,1.60
2022-10-16T08:54:58.721Z,1.45
2022-10-16T08:57:28.244Z,1.35
2022-10-16T09:00:01.481Z,1.52
2022-10-16T09:02:36.959Z,1.67
2022-10-16T09:05:34.770Z,1.30
2022-10-16T09:08:31.134Z,1.90
2022-10-16T09:11:10.386Z,2.15
2022-10-16T09:14:13.390Z,1.73
2022-10-16T09:16:53.838Z,1.60
2022-10-16T09:19:36.649Z,1.10
2022-10-16T09:22:15.526Z,1.50
2022-10-16T09:24:43.433Z,1.60
2022-10-16T09:27:15.681Z,1.55
2022-10-16T09:29:42.741Z,1.48
2022-10-16T09:32:20.325Z,1.73
2022-10-16T09:34:51.846Z,3.60
2022-10-16T09:37:22.516Z,3.60
2022-10-16T09:39:52.296Z,2.25
2022-10-16T09:42:36.618Z,2.25
2022-10-16T09:45:05.505Z,1.55
2022-10-16T09:47:37.662Z,1.60
2022-10-16T09:50:28.637Z,1.38
2022-10-16T09:53:06.407Z,1.20
2022-10-16T09:55:33.935Z,1.20
2022-10-16T09:58:01.525Z,1.50
2022-10-16T10:00:29.123Z,1.30
2022-10-16T10:02:56.879Z,1.30
2022-10-16T10:05:30.097Z,1.35
2022-10-16T10:08:07.490Z,1.27
2022-10-16T10:10:42.212Z,1.63
2022-10-16T10:13:21.429Z,1.40
2022-10-16T10:15:49.648Z,1.30
2022-10-16T10:18:21.178Z,1.40
2022-10-16T10:20:59.963Z,1.35
2022-10-16T10:23:29.102Z,1.10
2022-10-16T10:26:12.083Z,1.15
2022-10-16T10:28:54.010Z,1.13
2022-10-16T10:31:50.281Z,1.02
2022-10-16T10:34:45.809Z,1.25
2022-10-16T10:37:28.114Z,1.30
2022-10-16T10:40:08.883Z,1.50
2022-10-16T10:48:00.258Z,1.40
2022-10-16T10:53:36.843Z,1.48
2022-10-16T10:56:19.132Z,1.30
2022-10-16T10:58:55.816Z,1.30
2022-10-16T11:01:56.562Z,1.30
2022-10-16T11:04:47.018Z,1.83
2022-10-16T11:07:36.041Z,1.50
2022-10-16T11:10:23.810Z,1.75
2022-10-16T11:13:21.918Z,1.35
2022-10-16T11:15:52.023Z,1.73
2022-10-16T11:22:54.204Z,1.30
2022-10-16T11:25:30.345Z,1.10
2022-10-16T11:28:16.456Z,1.30
2022-10-16T11:31:01.391Z,1.30
2022-10-16T11:33:36.304Z,1.08
2022-10-16T11:36:06.804Z,1.40
2022-10-16T11:38:52.662Z,1.10
2022-10-16T11:41:25.630Z,1.67
2022-10-16T11:44:15.632Z,1.40
2022-10-16T11:47:00.669Z,1.23
2022-10-16T11:49:41.639Z,1.30
2022-10-16T11:52:33.947Z,1.05
2022-10-16T11:55:05.519Z,1.70
2022-10-16T11:57:43.670Z,1.30
2022-10-16T12:00:25.719Z,1.25
2022-10-16T12:02:55.880Z,1.17
2022-10-16T12:05:37.313Z,1.05
2022-10-16T12:08:12.445Z,1.25
2022-10-16T12:10:41.647Z,1.02
2022-10-16T12:13:38.219Z,1.23
2022-10-16T12:16:14.839Z,1.25
2022-10-16T12:18:44.281Z,1.10
2022-10-16T12:21:16.636Z,1.20
2022-10-16T12:24:05.896Z,0.98
2022-10-16T12:26:38.528Z,1.38
2022-10-16T12:29:38.633Z,1.30
2022-10-16T12:32:45.001Z,1.10
2022-10-16T12:35:27.550Z,1.10
2022-10-16T12:37:55.340Z,1.50
2022-10-16T12:40:33.210Z,1.30
2022-10-16T12:43:00.687Z,1.10
2022-10-16T12:45:30.182Z,1.35
2022-10-16T12:47:57.983Z,1.20
2022-10-16T12:50:36.624Z,1.30
2022-10-16T12:53:18.925Z,1.10
2022-10-16T12:56:17.994Z,1.30
2022-10-16T12:59:10.937Z,0.95
2022-10-16T13:01:49.873Z,1.20
2022-10-16T13:04:59.785Z,1.10
2022-10-16T13:10:14.919Z,1.17
2022-10-16T13:17:11.825Z,1.00
2022-10-16T13:20:02.862Z,1.20
2022-10-16T13:22:55.111Z,1.48
2022-10-16T13:25:36.255Z,1.17
2022-10-16T13:28:10.912Z,1.20
2022-10-16T13:30:51.904Z,1.30
2022-10-16T13:33:21.506Z,1.13
2022-10-16T13:35:56.997Z,1.00
2022-10-16T13:38:46.836Z,1.15
2022-10-16T13:41:19.506Z,0.90
2022-10-16T13:43:50.682Z,1.10
2022-10-16T13:46:23.489Z,1.20
2022-10-16T13:49:33.664Z,1.50
2022-10-16T13:52:01.463Z,1.27
2022-10-16T13:54:32.188Z,1.20
2022-10-16T13:57:26.177Z,1.08
2022-10-16T13:59:56.840Z,1.20
2022-10-16T14:02:30.733Z,1.05
2022-10-16T14:04:59.638Z,1.35
2022-10-16T14:07:35.246Z,1.27
2022-10-16T14:10:06.167Z,1.65
2022-10-16T14:13:04.341Z,1.30
2022-10-16T14:15:36.649Z,1.20
2022-10-16T14:18:04.624Z,1.20
2022-10-16T14:20:34.430Z,1.20
2022-10-16T14:23:06.214Z,1.00
2022-10-16T14:25:33.950Z,1.40
2022-10-16T14:30:30.871Z,1.42
2022-10-16T14:33:03.984Z,1.20
2022-10-16T14:35:39.694Z,1.45
2022-10-16T14:38:17.139Z,1.30
2022-10-16T14:40:49.531Z,1.30
2022-10-16T14:44:14.981Z,1.17
2022-10-16T14:46:44.684Z,1.40
2022-10-16T14:49:11.598Z,1.10
2022-10-16T14:51:41.997Z,1.80
2022-10-16T14:58:06.656Z,1.60
2022-10-16T15:00:33.587Z,1.35
2022-10-16T15:03:00.530Z,1.48
2022-10-16T15:05:28.645Z,1.23
2022-10-16T15:07:56.499Z,1.20
2022-10-16T15:10:29.914Z,1.20
2022-10-16T15:12:56.949Z,1.50
2022-10-16T15:15:23.928Z,1.40
2022-10-16T15:17:56.903Z,1.33
2022-10-16T15:20:28.951Z,1.13
2022-10-16T15:22:56.001Z,1.40
2022-10-16T15:26:24.062Z,1.30
2022-10-16T15:28:51.282Z,1.27
2022-10-16T15:31:18.356Z,1.60
2022-10-16T15:33:48.794Z,1.65
2022-10-16T15:36:15.809Z,1.63
2022-10-16T15:38:42.805Z,1.73
2022-10-16T15:41:11.338Z,1.50
2022-10-16T15:43:38.491Z,2.35
2022-10-16T15:46:09.568Z,2.28
2022-10-16T15:48:36.639Z,2.55
2022-10-16T15:51:08.782Z,3.70
2022-10-16T15:54:03.535Z,3.20
2022-10-16T15:56:34.275Z,2.72
2022-10-16T15:59:03.066Z,2.50
2022-10-16T16:01:34.307Z,2.92
2022-10-16T16:04:02.966Z,2.63
2022-10-16T16:06:35.362Z,3.40
2022-10-16T16:11:33.017Z,2.03
2022-10-16T16:16:26.828Z,1.60
2022-10-16T16:18:54.269Z,1.90
2022-10-16T16:21:35.532Z,2.10
2022-10-16T16:24:08.719Z,2.35
2022-10-16T16:26:38.551Z,1.92
2022-10-16T16:29:05.783Z,1.83
2022-10-16T16:31:33.666Z,1.92
2022-10-16T16:34:02.199Z,1.90
2022-10-16T16:36:29.856Z,2.00
2022-10-16T16:38:58.035Z,1.90
2022-10-16T16:41:27.284Z,1.80
2022-10-16T16:43:56.059Z,1.70
2022-10-16T16:46:23.590Z,2.05
2022-10-16T16:48:56.482Z,1.60
2022-10-16T16:51:23.531Z,2.03
2022-10-16T16:54:53.425Z,1.88
2022-10-16T16:57:21.422Z,2.00
2022-10-16T16:59:50.850Z,1.70
2022-10-16T17:02:18.213Z,1.75
2022-10-16T17:04:45.232Z,1.80
2022-10-16T17:07:12.218Z,1.88
2022-10-16T17:09:39.358Z,2.25
2022-10-16T17:12:06.408Z,2.25
2022-10-16T17:14:33.557Z,2.45
2022-10-16T17:17:00.529Z,1.98
2022-10-16T17:19:27.700Z,1.98
2022-10-16T17:21:54.807Z,2.20
2022-10-16T17:24:22.558Z,1.98
2022-10-16T17:26:49.891Z,1.60
2022-10-16T17:29:18.571Z,2.05
2022-10-16T17:31:46.153Z,2.13
2022-10-16T17:34:13.513Z,2.00
2022-10-16T17:36:44.383Z,1.80
2022-10-16T17:39:18.060Z,2.30
2022-10-16T17:41:46.404Z,2.03
2022-10-16T17:44:19.924Z,2.05
2022-10-16T17:46:48.854Z,2.00
2022-10-16T17:49:16.777Z,2.00
2022-10-16T17:51:44.207Z,2.10
2022-10-16T17:54:14.488Z,2.10
2022-10-16T17:56:41.883Z,2.40
2022-10-16T17:59:10.226Z,2.53
2022-10-16T18:01:40.503Z,2.20
2022-10-16T18:04:10.622Z,2.10
2022-10-16T18:06:37.880Z,2.35
2022-10-16T18:09:06.319Z,2.38
2022-10-16T18:11:33.557Z,2.47
2022-10-16T18:14:01.327Z,2.58
2022-10-16T18:16:30.813Z,2.40
2022-10-16T18:19:32.050Z,4.25
2022-10-16T18:21:59.329Z,12.85
2022-10-16T18:24:26.841Z,11.05
2022-10-16T18:26:58.517Z,13.55
2022-10-16T18:29:27.418Z,23.92
2022-10-16T18:31:54.539Z,25.50
2022-10-16T18:34:37.534Z,23.90
2022-10-16T18:37:04.559Z,19.15
2022-10-16T18:39:31.542Z,15.32
2022-10-16T18:42:00.065Z,12.70
2022-10-16T18:44:27.828Z,9.15
2022-10-16T18:46:57.138Z,8.25
2022-10-16T18:49:26.511Z,7.00
2022-10-16T18:51:56.731Z,6.18
2022-10-16T18:54:24.982Z,5.50
2022-10-16T18:56:53.145Z,5.53
2022-10-16T18:59:20.520Z,3.63
2022-10-16T19:01:52.644Z,2.90
2022-10-16T19:04:21.966Z,2.75
2022-10-16T19:06:51.110Z,2.38
2022-10-16T19:09:20.143Z,2.78
2022-10-16T19:11:47.270Z,2.83
2022-10-16T19:14:15.675Z,2.55
2022-10-16T19:16:43.282Z,2.70
2022-10-16T19:19:17.247Z,2.83
2022-10-16T19:21:44.261Z,2.45
2022-10-16T19:24:14.165Z,2.58
2022-10-16T19:29:10.845Z,2.70
2022-10-16T19:31:37.980Z,3.33
2022-10-16T19:34:06.775Z,4.15
2022-10-16T19:36:38.560Z,5.13
2022-10-16T19:39:08.088Z,4.80
2022-10-16T19:41:37.346Z,5.70
2022-10-16T19:44:06.209Z,6.22
2022-10-16T19:50:59.170Z,4.85
2022-10-16T19:53:28.496Z,4.18
2022-10-16T19:55:56.008Z,3.53
2022-10-16T19:58:23.867Z,3.03
2022-10-16T20:00:50.965Z,2.75
2022-10-16T20:03:18.144Z,2.78
2022-10-16T20:05:56.865Z,2.47
2022-10-16T20:08:24.815Z,2.30
2022-10-16T20:10:53.313Z,2.28
2022-10-16T20:13:21.566Z,2.00
2022-10-16T20:15:49.324Z,1.88
2022-10-16T20:22:35.380Z,1.80
2022-10-16T20:25:04.899Z,2.17
2022-10-16T20:27:34.211Z,1.80
2022-10-16T20:30:01.168Z,1.90
2022-10-16T20:32:28.186Z,2.50
2022-10-16T20:34:55.141Z,2.33
2022-10-16T20:37:22.149Z,2.40
2022-10-16T20:39:49.115Z,2.10
2022-10-16T20:42:16.094Z,2.00
2022-10-16T20:44:43.751Z,1.55
2022-10-16T20:47:12.043Z,2.00
2022-10-16T20:49:41.079Z,1.73
2022-10-16T20:52:08.254Z,2.05
2022-10-16T20:54:35.402Z,2.08
2022-10-16T20:57:02.409Z,2.00
2022-10-16T20:59:29.481Z,2.00
2022-10-16T21:01:56.568Z,1.60
2022-10-16T21:04:23.812Z,2.00
2022-10-16T21:06:50.756Z,2.03
2022-10-16T21:09:17.769Z,2.53
2022-10-16T21:11:44.695Z,2.15
2022-10-16T21:14:11.716Z,1.90
2022-10-16T21:16:38.749Z,1.83
2022-10-16T21:19:06.323Z,1.67
2022-10-16T21:21:36.509Z,1.50
2022-10-16T21:24:04.501Z,1.70
2022-10-16T21:26:31.988Z,1.45
2022-10-16T21:29:04.671Z,1.77
2022-10-16T21:31:32.234Z,2.10
2022-10-16T21:33:59.694Z,1.98
2022-10-16T21:36:29.282Z,1.90
2022-10-16T21:38:56.759Z,1.77
2022-10-16T21:41:26.866Z,1.92
2022-10-16T21:43:54.200Z,1.60
2022-10-16T21:46:24.149Z,1.60
2022-10-16T21:48:55.551Z,1.42
2022-10-16T21:51:31.018Z,1.45
2022-10-16T21:53:57.950Z,1.52
2022-10-16T21:56:24.926Z,1.50
2022-10-16T21:58:52.011Z,1.80
2022-10-16T22:01:22.432Z,1.60
2022-10-16T22:03:49.953Z,1.65
2022-10-16T22:06:19.159Z,1.67
2022-10-16T22:08:47.931Z,1.73
2022-10-16T22:11:22.211Z,1.58
2022-10-16T22:14:19.772Z,1.52
2022-10-16T22:16:47.607Z,1.55
2022-10-16T22:19:16.275Z,1.70
2022-10-16T22:21:45.564Z,1.58
2022-10-16T22:24:12.952Z,1.77
2022-10-16T22:26:40.127Z,1.80
2022-10-16T22:29:07.775Z,1.67
2022-10-16T22:31:35.287Z,1.55
2022-10-16T22:34:04.017Z,1.80
2022-10-16T22:36:31.597Z,1.73
2022-10-16T22:38:58.969Z,1.70
2022-10-16T22:41:25.981Z,1.77
2022-10-16T22:43:53.263Z,2.47
2022-10-16T22:46:23.363Z,1.60
2022-10-16T22:48:50.892Z,2.10
2022-10-16T22:51:18.490Z,1.77
2022-10-16T22:53:47.163Z,1.67
2022-10-16T22:56:16.443Z,2.28
2022-10-16T22:58:44.215Z,1.77
2022-10-16T23:01:21.026Z,1.50
2022-10-16T23:03:48.183Z,1.80
2022-10-16T23:06:15.168Z,1.40
2022-10-16T23:08:42.418Z,1.58
2022-10-16T23:11:12.175Z,1.30
2022-10-16T23:13:43.705Z,1.30
2022-10-16T23:16:12.446Z,1.73
2022-10-16T23:18:40.123Z,1.70
2022-10-16T23:21:09.462Z,1.60
2022-10-16T23:23:37.451Z,1.45
2022-10-16T23:26:25.172Z,1.90
2022-10-16T23:28:52.592Z,1.88
2022-10-16T23:31:19.953Z,1.60
2022-10-16T23:33:46.961Z,1.60
2022-10-16T23:36:17.186Z,1.73
2022-10-16T23:38:45.024Z,1.80
2022-10-16T23:41:13.152Z,2.00
2022-10-16T23:43:40.543Z,1.85
2022-10-16T23:46:09.678Z,1.90
2022-10-16T23:48:38.422Z,1.80
2022-10-16T23:51:07.291Z,1.83
2022-10-16T23:53:34.501Z,1.65
2022-10-16T23:56:01.471Z,1.70
